createdAt,value
2016-06-10T00:00:24.708Z,0
2016-06-10T00:01:24.570Z,0
2016-06-10T00:02:24.714Z,0
2016-06-10T00:03:24.701Z,0
2016-06-10T00:04:24.720Z,0
2016-06-10T00:05:24.724Z,0
2016-06-10T00:06:24.726Z,0
2016-06-10T00:07:24.714Z,0
2016-06-10T00:08:24.733Z,0
2016-06-10T00:09:25.767Z,0
2016-06-10T00:10:24.739Z,0
2016-06-10T00:11:24.726Z,0
2016-06-10T00:12:24.714Z,0
2016-06-10T00:13:24.857Z,0
2016-06-10T00:14:24.720Z,0
2016-06-10T00:15:24.738Z,0
2016-06-10T00:16:24.710Z,0
2016-06-10T00:17:24.714Z,0
2016-06-10T00:18:24.717Z,0
2016-06-10T00:19:24.735Z,0
2016-06-10T00:20:24.722Z,0
2016-06-10T00:21:24.726Z,0
2016-06-10T00:22:24.588Z,0
2016-06-10T00:23:24.715Z,0
2016-06-10T00:24:24.673Z,0
2016-06-10T00:25:24.941Z,0
2016-06-10T00:26:24.725Z,0
2016-06-10T00:27:24.728Z,0
2016-06-10T00:28:24.747Z,0
2016-06-10T00:29:24.750Z,0
2016-06-10T00:30:24.737Z,0
2016-06-10T00:31:24.740Z,0
2016-06-10T00:32:24.728Z,0
2016-06-10T00:33:24.731Z,0
2016-06-10T00:34:24.735Z,0
2016-06-10T00:35:24.722Z,0
2016-06-10T00:36:24.741Z,0
2016-06-10T00:37:24.744Z,0
2016-06-10T00:38:24.731Z,0
2016-06-10T00:39:25.469Z,0
2016-06-10T00:40:24.940Z,0
2016-06-10T00:41:24.740Z,0
2016-06-10T00:42:24.743Z,0
2016-06-10T00:43:24.732Z,0
2016-06-10T00:44:24.749Z,0
2016-06-10T00:45:24.737Z,0
2016-06-10T00:46:24.741Z,0
2016-06-10T00:47:24.587Z,0
2016-06-10T00:48:24.747Z,0
2016-06-10T00:49:24.733Z,0
2016-06-10T00:50:24.737Z,0
2016-06-10T00:51:24.756Z,0
2016-06-10T00:52:24.743Z,0
2016-06-10T00:53:24.746Z,0
2016-06-10T00:54:24.874Z,0
2016-06-10T00:55:25.268Z,0
2016-06-10T00:56:24.755Z,0
2016-06-10T00:57:24.758Z,0
2016-06-10T00:58:24.745Z,0
2016-06-10T00:59:24.749Z,0
2016-06-10T01:00:24.752Z,0
2016-06-10T01:01:24.787Z,0
2016-06-10T01:02:24.758Z,0
2016-06-10T01:03:24.746Z,0
2016-06-10T01:04:24.749Z,0
2016-06-10T01:05:24.752Z,0
2016-06-10T01:06:24.770Z,0
2016-06-10T01:07:24.773Z,0
2016-06-10T01:08:24.761Z,0
2016-06-10T01:09:24.764Z,0
2016-06-10T01:10:24.752Z,0
2016-06-10T01:11:24.771Z,0
2016-06-10T01:12:24.789Z,0
2016-06-10T01:13:24.761Z,0
2016-06-10T01:14:24.608Z,0
2016-06-10T01:15:24.767Z,0
2016-06-10T01:16:24.770Z,0
2016-06-10T01:17:24.617Z,0
2016-06-10T01:18:24.776Z,0
2016-06-10T01:19:24.763Z,0
2016-06-10T01:20:24.767Z,0
2016-06-10T01:21:24.769Z,0
2016-06-10T01:22:24.772Z,0
2016-06-10T01:23:24.775Z,0
2016-06-10T01:24:24.608Z,0
2016-06-10T01:25:25.094Z,0
2016-06-10T01:26:24.770Z,0
2016-06-10T01:27:24.772Z,0
2016-06-10T01:28:24.776Z,0
2016-06-10T01:29:24.778Z,0
2016-06-10T01:30:24.782Z,0
2016-06-10T01:31:24.612Z,0
2016-06-10T01:32:24.772Z,0
2016-06-10T01:33:24.775Z,0
2016-06-10T01:34:24.778Z,0
2016-06-10T01:35:24.781Z,0
2016-06-10T01:36:24.801Z,0
2016-06-10T01:37:24.772Z,0
2016-06-10T01:38:24.775Z,0
2016-06-10T01:39:24.779Z,0
2016-06-10T01:40:25.719Z,0
2016-06-10T01:41:24.768Z,0
2016-06-10T01:42:24.616Z,0
2016-06-10T01:43:24.775Z,0
2016-06-10T01:44:24.778Z,0
2016-06-10T01:45:24.781Z,0
2016-06-10T01:46:24.643Z,0
2016-06-10T01:47:24.771Z,0
2016-06-10T01:48:24.774Z,0
2016-06-10T01:49:24.621Z,0
2016-06-10T01:50:24.780Z,0
2016-06-10T01:51:24.784Z,0
2016-06-10T01:52:24.772Z,0
2016-06-10T01:53:24.789Z,0
2016-06-10T01:54:24.621Z,0
2016-06-10T01:55:25.921Z,0
2016-06-10T01:56:24.798Z,0
2016-06-10T01:57:24.630Z,0
2016-06-10T01:58:24.477Z,0
2016-06-10T01:59:24.793Z,0
2016-06-10T02:00:24.796Z,0
2016-06-10T02:01:24.799Z,0
2016-06-10T02:02:24.786Z,0
2016-06-10T02:03:24.789Z,0
2016-06-10T02:04:24.792Z,0
2016-06-10T02:05:24.796Z,0
2016-06-10T02:06:24.798Z,0
2016-06-10T02:07:24.786Z,0
2016-06-10T02:08:24.789Z,0
2016-06-10T02:09:24.791Z,0
2016-06-10T02:10:25.795Z,0
2016-06-10T02:11:25.141Z,0
2016-06-10T02:12:24.786Z,0
2016-06-10T02:13:24.851Z,0
2016-06-10T02:14:24.792Z,0
2016-06-10T02:15:24.795Z,0
2016-06-10T02:16:24.798Z,0
2016-06-10T02:17:24.786Z,0
2016-06-10T02:18:24.788Z,0
2016-06-10T02:19:24.791Z,0
2016-06-10T02:20:24.794Z,0
2016-06-10T02:21:24.797Z,0
2016-06-10T02:22:24.786Z,0
2016-06-10T02:23:24.647Z,0
2016-06-10T02:24:24.807Z,0
2016-06-10T02:25:25.420Z,0
2016-06-10T02:26:24.798Z,0
2016-06-10T02:27:24.801Z,0
2016-06-10T02:28:24.663Z,0
2016-06-10T02:29:24.807Z,0
2016-06-10T02:30:24.795Z,0
2016-06-10T02:31:24.797Z,0
2016-06-10T02:32:24.644Z,0
2016-06-10T02:33:24.804Z,0
2016-06-10T02:34:24.807Z,0
2016-06-10T02:35:24.809Z,0
2016-06-10T02:36:24.812Z,0
2016-06-10T02:37:24.848Z,0
2016-06-10T02:38:24.857Z,0
2016-06-10T02:39:24.897Z,0
2016-06-10T02:40:25.720Z,0
2016-06-10T02:41:24.979Z,0
2016-06-10T02:42:24.854Z,0
2016-06-10T02:43:25.026Z,0
2016-06-10T02:44:25.028Z,0
2016-06-10T02:45:25.045Z,0
2016-06-10T02:46:25.077Z,0
2016-06-10T02:47:25.074Z,0
2016-06-10T02:48:25.097Z,0
2016-06-10T02:49:25.091Z,0
2016-06-10T02:50:24.941Z,0
2016-06-10T02:51:25.106Z,0
2016-06-10T02:52:25.112Z,0
2016-06-10T02:53:25.101Z,0
2016-06-10T02:54:25.090Z,0
2016-06-10T02:55:26.205Z,0
2016-06-10T02:56:25.116Z,0
2016-06-10T02:57:25.105Z,0
2016-06-10T02:58:25.108Z,0
2016-06-10T02:59:24.956Z,0
2016-06-10T03:00:25.101Z,0
2016-06-10T03:01:25.105Z,0
2016-06-10T03:02:24.953Z,0
2016-06-10T03:03:25.111Z,0
2016-06-10T03:04:25.114Z,0
2016-06-10T03:05:25.118Z,0
2016-06-10T03:06:25.135Z,0
2016-06-10T03:07:25.139Z,0
2016-06-10T03:08:25.111Z,0
2016-06-10T03:09:25.114Z,0
2016-06-10T03:10:25.055Z,0
2016-06-10T03:11:25.120Z,0
2016-06-10T03:12:25.108Z,0
2016-06-10T03:13:25.111Z,0
2016-06-10T03:14:25.146Z,0
2016-06-10T03:15:25.117Z,0
2016-06-10T03:16:25.120Z,0
2016-06-10T03:17:25.124Z,0
2016-06-10T03:18:25.126Z,0
2016-06-10T03:19:25.113Z,0
2016-06-10T03:20:25.116Z,0
2016-06-10T03:21:25.120Z,0
2016-06-10T03:22:25.123Z,0
2016-06-10T03:23:25.125Z,0
2016-06-10T03:24:25.129Z,0
2016-06-10T03:25:25.741Z,0
2016-06-10T03:26:25.135Z,5
2016-06-10T03:27:25.138Z,5
2016-06-10T03:28:25.141Z,5
2016-06-10T03:29:25.128Z,5
2016-06-10T03:30:25.132Z,5
2016-06-10T03:31:25.134Z,5
2016-06-10T03:32:25.122Z,5
2016-06-10T03:33:25.126Z,10
2016-06-10T03:34:25.128Z,10
2016-06-10T03:35:25.146Z,10
2016-06-10T03:36:25.150Z,10
2016-06-10T03:37:25.138Z,10
2016-06-10T03:38:24.984Z,15
2016-06-10T03:39:24.972Z,15
2016-06-10T03:40:26.522Z,15
2016-06-10T03:41:25.790Z,15
2016-06-10T03:42:25.138Z,15
2016-06-10T03:43:25.140Z,15
2016-06-10T03:44:25.144Z,20
2016-06-10T03:45:24.835Z,20
2016-06-10T03:46:25.149Z,20
2016-06-10T03:47:24.981Z,25
2016-06-10T03:48:25.140Z,25
2016-06-10T03:49:25.128Z,25
2016-06-10T03:50:25.131Z,35
2016-06-10T03:51:25.149Z,40
2016-06-10T03:52:25.137Z,45
2016-06-10T03:53:25.140Z,50
2016-06-10T03:54:25.143Z,50
2016-06-10T03:55:25.302Z,55
2016-06-10T03:56:25.556Z,60
2016-06-10T03:57:25.137Z,65
2016-06-10T03:58:25.140Z,65
2016-06-10T03:59:25.142Z,65
2016-06-10T04:00:25.146Z,70
2016-06-10T04:01:25.149Z,75
2016-06-10T04:02:25.151Z,85
2016-06-10T04:03:25.140Z,90
2016-06-10T04:04:25.002Z,95
2016-06-10T04:05:25.161Z,105
2016-06-10T04:06:25.149Z,110
2016-06-10T04:07:24.995Z,115
2016-06-10T04:08:25.155Z,115
2016-06-10T04:09:25.173Z,120
2016-06-10T04:10:25.317Z,120
2016-06-10T04:11:25.117Z,125
2016-06-10T04:12:25.168Z,130
2016-06-10T04:13:25.217Z,130
2016-06-10T04:14:25.173Z,135
2016-06-10T04:15:25.161Z,140
2016-06-10T04:16:25.007Z,145
2016-06-10T04:17:25.167Z,150
2016-06-10T04:18:25.170Z,155
2016-06-10T04:19:25.017Z,160
2016-06-10T04:20:25.176Z,160
2016-06-10T04:21:25.164Z,160
2016-06-10T04:22:25.166Z,165
2016-06-10T04:23:25.170Z,165
2016-06-10T04:24:25.188Z,170
2016-06-10T04:25:25.176Z,170
2016-06-10T04:26:25.398Z,170
2016-06-10T04:27:25.182Z,175
2016-06-10T04:28:25.185Z,175
2016-06-10T04:29:25.204Z,180
2016-06-10T04:30:25.191Z,185
2016-06-10T04:31:25.194Z,195
2016-06-10T04:32:25.182Z,205
2016-06-10T04:33:25.200Z,205
2016-06-10T04:34:25.047Z,210
2016-06-10T04:35:25.050Z,215
2016-06-10T04:36:25.194Z,220
2016-06-10T04:37:25.056Z,225
2016-06-10T04:38:25.215Z,235
2016-06-10T04:39:25.203Z,250
2016-06-10T04:40:25.206Z,240
2016-06-10T04:41:25.507Z,240
2016-06-10T04:42:25.212Z,245
2016-06-10T04:43:25.231Z,260
2016-06-10T04:44:25.219Z,260
2016-06-10T04:45:24.925Z,260
2016-06-10T04:46:25.225Z,270
2016-06-10T04:47:25.228Z,275
2016-06-10T04:48:25.340Z,280
2016-06-10T04:49:25.093Z,295
2016-06-10T04:50:25.252Z,295
2016-06-10T04:51:25.255Z,290
2016-06-10T04:52:25.259Z,300
2016-06-10T04:53:25.246Z,310
2016-06-10T04:54:25.265Z,315
2016-06-10T04:55:25.267Z,325
2016-06-10T04:56:25.381Z,335
2016-06-10T04:57:25.274Z,335
2016-06-10T04:58:25.277Z,335
2016-06-10T04:59:25.124Z,335
2016-06-10T05:00:25.283Z,340
2016-06-10T05:01:25.271Z,345
2016-06-10T05:02:25.134Z,345
2016-06-10T05:03:25.308Z,360
2016-06-10T05:04:25.311Z,365
2016-06-10T05:05:25.298Z,370
2016-06-10T05:06:25.302Z,385
2016-06-10T05:07:25.336Z,385
2016-06-10T05:08:25.323Z,390
2016-06-10T05:09:25.327Z,395
2016-06-10T05:10:25.314Z,395
2016-06-10T05:11:26.348Z,395
2016-06-10T05:12:25.336Z,410
2016-06-10T05:13:25.339Z,415
2016-06-10T05:14:25.342Z,420
2016-06-10T05:15:25.345Z,420
2016-06-10T05:16:25.348Z,430
2016-06-10T05:17:25.382Z,435
2016-06-10T05:18:25.198Z,455
2016-06-10T05:19:25.358Z,460
2016-06-10T05:20:25.377Z,480
2016-06-10T05:21:25.394Z,490
2016-06-10T05:22:25.383Z,485
2016-06-10T05:23:25.386Z,485
2016-06-10T05:24:25.389Z,475
2016-06-10T05:25:25.407Z,10
2016-06-10T05:26:25.520Z,10
2016-06-10T05:27:25.413Z,10
2016-06-10T05:28:25.260Z,10
2016-06-10T05:29:25.419Z,10
2016-06-10T05:30:25.422Z,10
2016-06-10T05:31:25.441Z,10
2016-06-10T05:32:25.428Z,10
2016-06-10T05:33:25.431Z,10
2016-06-10T05:34:25.435Z,10
2016-06-10T05:35:25.469Z,10
2016-06-10T05:36:25.457Z,10
2016-06-10T05:37:25.460Z,10
2016-06-10T05:38:25.463Z,10
2016-06-10T05:39:25.466Z,10
2016-06-10T05:40:25.469Z,10
2016-06-10T05:41:25.566Z,10
2016-06-10T05:42:25.490Z,10
2016-06-10T05:43:25.494Z,10
2016-06-10T05:44:25.340Z,10
2016-06-10T05:45:25.499Z,10
2016-06-10T05:46:25.518Z,10
2016-06-10T05:47:25.490Z,10
2016-06-10T05:48:25.509Z,10
2016-06-10T05:49:25.512Z,10
2016-06-10T05:50:25.515Z,10
2016-06-10T05:51:25.533Z,10
2016-06-10T05:52:25.365Z,10
2016-06-10T05:53:25.524Z,10
2016-06-10T05:54:25.527Z,10
2016-06-10T05:55:25.530Z,10
2016-06-10T05:56:25.815Z,10
2016-06-10T05:57:25.536Z,10
2016-06-10T05:58:25.540Z,10
2016-06-10T05:59:25.543Z,10
2016-06-10T06:00:25.545Z,10
2016-06-10T06:01:25.548Z,10
2016-06-10T06:02:25.551Z,10
2016-06-10T06:03:25.555Z,10
2016-06-10T06:04:25.558Z,10
2016-06-10T06:05:25.576Z,10
2016-06-10T06:06:25.564Z,10
2016-06-10T06:07:25.552Z,10
2016-06-10T06:08:25.570Z,10
2016-06-10T06:09:25.589Z,10
2016-06-10T06:10:25.420Z,10
2016-06-10T06:11:26.126Z,10
2016-06-10T06:12:25.582Z,10
2016-06-10T06:13:25.524Z,10
2016-06-10T06:14:25.588Z,10
2016-06-10T06:15:25.577Z,10
2016-06-10T06:16:25.439Z,10
2016-06-10T06:17:25.583Z,10
2016-06-10T06:18:25.586Z,10
2016-06-10T06:19:25.589Z,10
2016-06-10T06:20:25.592Z,10
2016-06-10T06:21:25.595Z,10
2016-06-10T06:22:25.598Z,10
2016-06-10T06:23:25.601Z,10
2016-06-10T06:24:25.604Z,10
2016-06-10T06:25:25.607Z,10
2016-06-10T06:26:26.016Z,10
2016-06-10T06:27:25.598Z,10
2016-06-10T06:28:25.445Z,10
2016-06-10T06:29:25.603Z,10
2016-06-10T06:30:25.606Z,10
2016-06-10T06:31:25.641Z,10
2016-06-10T06:32:25.613Z,10
2016-06-10T06:33:25.616Z,10
2016-06-10T06:34:25.604Z,10
2016-06-10T06:35:25.622Z,10
2016-06-10T06:36:25.625Z,10
2016-06-10T06:37:25.628Z,10
2016-06-10T06:38:25.631Z,10
2016-06-10T06:39:25.634Z,10
2016-06-10T06:40:25.623Z,10
2016-06-10T06:41:26.562Z,10
2016-06-10T06:42:25.628Z,10
2016-06-10T06:43:25.491Z,10
2016-06-10T06:44:25.635Z,10
2016-06-10T06:45:25.638Z,10
2016-06-10T06:46:25.484Z,10
2016-06-10T06:47:25.644Z,10
2016-06-10T06:48:25.647Z,10
2016-06-10T06:49:25.634Z,10
2016-06-10T06:50:25.637Z,10
2016-06-10T06:51:25.657Z,10
2016-06-10T06:52:25.487Z,10
2016-06-10T06:53:25.646Z,10
2016-06-10T06:54:25.649Z,10
2016-06-10T06:55:25.652Z,10
2016-06-10T06:56:25.515Z,10
2016-06-10T06:57:25.643Z,10
2016-06-10T06:58:25.662Z,10
2016-06-10T06:59:25.648Z,10
2016-06-10T07:00:25.652Z,10
2016-06-10T07:01:25.671Z,10
2016-06-10T07:02:25.658Z,10
2016-06-10T07:03:25.521Z,10
2016-06-10T07:04:25.665Z,10
2016-06-10T07:05:25.542Z,10
2016-06-10T07:06:25.655Z,10
2016-06-10T07:07:25.674Z,10
2016-06-10T07:08:25.677Z,10
2016-06-10T07:09:25.696Z,10
2016-06-10T07:10:25.682Z,10
2016-06-10T07:11:26.483Z,10
2016-06-10T07:12:25.530Z,10
2016-06-10T07:13:25.677Z,10
2016-06-10T07:14:25.695Z,10
2016-06-10T07:15:25.523Z,10
2016-06-10T07:16:25.683Z,10
2016-06-10T07:17:25.686Z,10
2016-06-10T07:18:25.689Z,10
2016-06-10T07:19:25.676Z,10
2016-06-10T07:20:25.679Z,10
2016-06-10T07:21:25.714Z,10
2016-06-10T07:22:25.529Z,10
2016-06-10T07:23:25.547Z,10
2016-06-10T07:24:26.320Z,10
2016-06-10T07:25:27.057Z,10
2016-06-10T07:26:25.698Z,10
2016-06-10T07:27:25.545Z,10
2016-06-10T07:28:25.688Z,10
2016-06-10T07:29:25.707Z,10
2016-06-10T07:30:25.694Z,10
2016-06-10T07:31:25.542Z,10
2016-06-10T07:32:25.544Z,10
2016-06-10T07:33:25.703Z,10
2016-06-10T07:34:25.723Z,10
2016-06-10T07:35:25.709Z,10
2016-06-10T07:36:25.712Z,10
2016-06-10T07:37:25.715Z,10
2016-06-10T07:38:25.704Z,10
2016-06-10T07:39:25.738Z,10
2016-06-10T07:40:25.710Z,10
2016-06-10T07:41:25.713Z,10
2016-06-10T07:42:25.716Z,10
2016-06-10T07:43:25.719Z,10
2016-06-10T07:44:25.723Z,10
2016-06-10T07:45:25.725Z,10
2016-06-10T07:46:25.728Z,10
2016-06-10T07:47:25.731Z,10
2016-06-10T07:48:25.734Z,10
2016-06-10T07:49:25.738Z,10
2016-06-10T07:50:25.427Z,10
2016-06-10T07:51:25.744Z,10
2016-06-10T07:52:25.730Z,10
2016-06-10T07:53:25.733Z,10
2016-06-10T07:54:25.737Z,10
2016-06-10T07:55:25.740Z,10
2016-06-10T07:56:25.962Z,10
2016-06-10T07:57:25.762Z,10
2016-06-10T07:58:25.750Z,10
2016-06-10T07:59:25.737Z,10
2016-06-10T08:00:25.740Z,10
2016-06-10T08:01:25.759Z,10
2016-06-10T08:02:25.747Z,10
2016-06-10T08:03:25.592Z,10
2016-06-10T08:04:25.753Z,10
2016-06-10T08:05:25.740Z,10
2016-06-10T08:06:25.759Z,10
2016-06-10T08:07:25.762Z,10
2016-06-10T08:08:25.749Z,10
2016-06-10T08:09:27.486Z,10
2016-06-10T08:10:25.458Z,10
2016-06-10T08:11:25.758Z,10
2016-06-10T08:12:25.761Z,10
2016-06-10T08:13:25.765Z,10
2016-06-10T08:14:25.768Z,10
2016-06-10T08:15:25.770Z,10
2016-06-10T08:16:25.930Z,5
2016-06-10T08:17:25.793Z,5
2016-06-10T08:18:25.779Z,5
2016-06-10T08:19:25.783Z,5
2016-06-10T08:20:25.630Z,5
2016-06-10T08:21:25.773Z,5
2016-06-10T08:22:25.792Z,5
2016-06-10T08:23:25.623Z,5
2016-06-10T08:24:26.079Z,5
2016-06-10T08:25:26.535Z,5
2016-06-10T08:26:25.804Z,5
2016-06-10T08:27:25.791Z,5
2016-06-10T08:28:25.794Z,5
2016-06-10T08:29:25.782Z,5
2016-06-10T08:30:25.628Z,5
2016-06-10T08:31:25.788Z,5
2016-06-10T08:32:25.651Z,5
2016-06-10T08:33:25.794Z,5
2016-06-10T08:34:25.500Z,5
2016-06-10T08:35:25.815Z,5
2016-06-10T08:36:25.788Z,5
2016-06-10T08:37:25.807Z,5
2016-06-10T08:38:25.810Z,5
2016-06-10T08:39:25.828Z,5
2016-06-10T08:40:25.831Z,5
2016-06-10T08:41:25.725Z,5
2016-06-10T08:42:26.088Z,5
2016-06-10T08:43:25.809Z,5
2016-06-10T08:44:25.812Z,5
2016-06-10T08:45:25.815Z,5
2016-06-10T08:46:25.662Z,5
2016-06-10T08:47:25.822Z,5
2016-06-10T08:48:25.919Z,5
2016-06-10T08:49:26.062Z,5
2016-06-10T08:50:25.894Z,5
2016-06-10T08:51:25.834Z,5
2016-06-10T08:52:25.853Z,5
2016-06-10T08:53:25.840Z,5
2016-06-10T08:54:25.827Z,5
2016-06-10T08:55:25.675Z,5
2016-06-10T08:56:26.381Z,5
2016-06-10T08:57:26.946Z,5
2016-06-10T08:58:25.872Z,5
2016-06-10T08:59:25.843Z,5
2016-06-10T09:00:25.846Z,5
2016-06-10T09:01:25.849Z,5
2016-06-10T09:02:25.837Z,5
2016-06-10T09:03:25.871Z,5
2016-06-10T09:04:25.858Z,5
2016-06-10T09:05:25.846Z,5
2016-06-10T09:06:25.850Z,5
2016-06-10T09:07:25.853Z,5
2016-06-10T09:08:25.855Z,5
2016-06-10T09:09:25.858Z,5
2016-06-10T09:10:25.876Z,5
2016-06-10T09:11:26.458Z,5
2016-06-10T09:12:26.086Z,5
2016-06-10T09:13:25.854Z,5
2016-06-10T09:14:25.858Z,5
2016-06-10T09:15:25.861Z,5
2016-06-10T09:16:25.863Z,5
2016-06-10T09:17:25.867Z,5
2016-06-10T09:18:25.870Z,5
2016-06-10T09:19:25.873Z,5
2016-06-10T09:20:25.876Z,5
2016-06-10T09:21:25.723Z,5
2016-06-10T09:22:25.898Z,5
2016-06-10T09:23:25.885Z,5
2016-06-10T09:24:25.889Z,5
2016-06-10T09:25:25.892Z,5
2016-06-10T09:26:25.895Z,5
2016-06-10T09:27:26.133Z,5
2016-06-10T09:28:25.901Z,5
2016-06-10T09:29:25.888Z,5
2016-06-10T09:30:25.938Z,5
2016-06-10T09:31:25.926Z,5
2016-06-10T09:32:25.913Z,5
2016-06-10T09:33:25.761Z,5
2016-06-10T09:34:25.904Z,5
2016-06-10T09:35:25.907Z,5
2016-06-10T09:36:25.910Z,5
2016-06-10T09:37:25.756Z,5
2016-06-10T09:38:25.931Z,5
2016-06-10T09:39:25.919Z,5
2016-06-10T09:40:25.907Z,5
2016-06-10T09:41:25.754Z,5
2016-06-10T09:42:25.835Z,5
2016-06-10T09:43:26.213Z,5
2016-06-10T09:44:25.919Z,5
2016-06-10T09:45:25.922Z,5
2016-06-10T09:46:25.925Z,5
2016-06-10T09:47:25.928Z,5
2016-06-10T09:48:25.931Z,5
2016-06-10T09:49:25.779Z,5
2016-06-10T09:50:25.938Z,5
2016-06-10T09:51:25.924Z,5
2016-06-10T09:52:25.928Z,5
2016-06-10T09:53:25.963Z,5
2016-06-10T09:54:25.794Z,5
2016-06-10T09:55:25.969Z,5
2016-06-10T09:56:25.972Z,5
2016-06-10T09:57:26.396Z,5
2016-06-10T09:58:25.806Z,5
2016-06-10T09:59:25.949Z,5
2016-06-10T10:00:25.952Z,5
2016-06-10T10:01:25.955Z,5
2016-06-10T10:02:25.958Z,5
2016-06-10T10:03:25.961Z,5
2016-06-10T10:04:25.965Z,5
2016-06-10T10:05:25.953Z,5
2016-06-10T10:06:25.956Z,5
2016-06-10T10:07:25.974Z,5
2016-06-10T10:08:25.977Z,5
2016-06-10T10:09:25.965Z,5
2016-06-10T10:10:25.983Z,5
2016-06-10T10:11:25.986Z,5
2016-06-10T10:12:25.692Z,5
2016-06-10T10:13:25.977Z,5
2016-06-10T10:14:25.980Z,5
2016-06-10T10:15:25.983Z,5
2016-06-10T10:16:25.830Z,5
2016-06-10T10:17:25.832Z,5
2016-06-10T10:18:25.820Z,5
2016-06-10T10:19:25.713Z,5
2016-06-10T10:20:25.686Z,5
2016-06-10T10:21:26.002Z,5
2016-06-10T10:22:25.847Z,5
2016-06-10T10:23:26.008Z,5
2016-06-10T10:24:25.995Z,5
2016-06-10T10:25:25.857Z,5
2016-06-10T10:26:26.001Z,5
2016-06-10T10:27:25.973Z,5
2016-06-10T10:28:26.351Z,5
2016-06-10T10:29:25.885Z,5
2016-06-10T10:30:25.997Z,5
2016-06-10T10:31:26.016Z,5
2016-06-10T10:32:26.019Z,5
2016-06-10T10:33:25.866Z,5
2016-06-10T10:34:26.026Z,5
2016-06-10T10:35:26.045Z,5
2016-06-10T10:36:25.876Z,5
2016-06-10T10:37:25.863Z,5
2016-06-10T10:38:26.038Z,5
2016-06-10T10:39:26.025Z,5
2016-06-10T10:40:26.044Z,5
2016-06-10T10:41:26.064Z,5
2016-06-10T10:42:26.223Z,5
2016-06-10T10:43:26.054Z,5
2016-06-10T10:44:26.025Z,5
2016-06-10T10:45:26.044Z,5
2016-06-10T10:46:26.047Z,5
2016-06-10T10:47:26.081Z,5
2016-06-10T10:48:25.896Z,5
2016-06-10T10:49:26.040Z,5
2016-06-10T10:50:25.747Z,5
2016-06-10T10:51:26.047Z,5
2016-06-10T10:52:26.050Z,5
2016-06-10T10:53:25.897Z,5
2016-06-10T10:54:25.900Z,5
2016-06-10T10:55:26.059Z,5
2016-06-10T10:56:25.953Z,5
2016-06-10T10:57:27.238Z,5
2016-06-10T10:58:26.163Z,5
2016-06-10T10:59:25.806Z,5
2016-06-10T11:00:26.089Z,5
2016-06-10T11:01:25.921Z,5
2016-06-10T11:02:26.080Z,5
2016-06-10T11:03:26.099Z,5
2016-06-10T11:04:26.071Z,5
2016-06-10T11:05:26.090Z,5
2016-06-10T11:06:25.937Z,5
2016-06-10T11:07:26.080Z,5
2016-06-10T11:08:26.083Z,5
2016-06-10T11:09:26.086Z,5
2016-06-10T11:10:26.089Z,5
2016-06-10T11:11:26.093Z,5
2016-06-10T11:12:25.845Z,5
2016-06-10T11:13:26.755Z,5
2016-06-10T11:14:26.086Z,5
2016-06-10T11:15:26.104Z,5
2016-06-10T11:16:26.108Z,5
2016-06-10T11:17:26.111Z,5
2016-06-10T11:18:26.114Z,5
2016-06-10T11:19:26.117Z,5
2016-06-10T11:20:26.120Z,5
2016-06-10T11:21:26.109Z,5
2016-06-10T11:22:26.127Z,5
2016-06-10T11:23:26.129Z,5
2016-06-10T11:24:26.118Z,5
2016-06-10T11:25:26.135Z,5
2016-06-10T11:26:26.124Z,5
2016-06-10T11:27:26.736Z,5
2016-06-10T11:28:26.848Z,5
2016-06-10T11:29:26.117Z,5
2016-06-10T11:30:26.135Z,5
2016-06-10T11:31:26.139Z,5
2016-06-10T11:32:26.126Z,5
2016-06-10T11:33:26.129Z,5
2016-06-10T11:34:26.148Z,5
2016-06-10T11:35:26.151Z,5
2016-06-10T11:36:26.154Z,5
2016-06-10T11:37:26.141Z,5
2016-06-10T11:38:26.144Z,5
2016-06-10T11:39:26.148Z,5
2016-06-10T11:40:26.167Z,5
2016-06-10T11:41:26.153Z,5
2016-06-10T11:42:26.187Z,5
2016-06-10T11:43:27.051Z,5
2016-06-10T11:44:26.178Z,5
2016-06-10T11:45:26.220Z,5
2016-06-10T11:46:26.262Z,5
2016-06-10T11:47:26.289Z,5
2016-06-10T11:48:26.191Z,5
2016-06-10T11:49:26.223Z,5
2016-06-10T11:50:26.381Z,5
2016-06-10T11:51:26.398Z,5
2016-06-10T11:52:26.416Z,5
2016-06-10T11:53:26.433Z,5
2016-06-10T11:54:26.478Z,5
2016-06-10T11:55:26.454Z,5
2016-06-10T11:56:26.478Z,5
2016-06-10T11:57:28.081Z,5
2016-06-10T11:58:26.057Z,5
2016-06-10T11:59:26.486Z,5
2016-06-10T12:00:26.490Z,5
2016-06-10T12:01:26.495Z,5
2016-06-10T12:02:26.486Z,5
2016-06-10T12:03:26.506Z,5
2016-06-10T12:04:26.495Z,5
2016-06-10T12:05:26.498Z,5
2016-06-10T12:06:26.549Z,5
2016-06-10T12:07:26.505Z,5
2016-06-10T12:08:26.352Z,5
2016-06-10T12:09:26.512Z,5
2016-06-10T12:10:26.530Z,5
2016-06-10T12:11:26.534Z,5
2016-06-10T12:12:27.054Z,5
2016-06-10T12:13:27.698Z,5
2016-06-10T12:14:26.514Z,5
2016-06-10T12:15:26.375Z,5
2016-06-10T12:16:26.379Z,5
2016-06-10T12:17:26.538Z,5
2016-06-10T12:18:26.526Z,5
2016-06-10T12:19:26.545Z,5
2016-06-10T12:20:26.407Z,5
2016-06-10T12:21:26.410Z,5
2016-06-10T12:22:26.241Z,5
2016-06-10T12:23:26.557Z,5
2016-06-10T12:24:26.561Z,5
2016-06-10T12:25:26.407Z,0
2016-06-10T12:26:26.581Z,0
2016-06-10T12:27:27.553Z,0
2016-06-10T12:28:27.151Z,0
2016-06-10T12:29:26.559Z,0
2016-06-10T12:30:26.422Z,0
2016-06-10T12:31:26.425Z,0
2016-06-10T12:32:26.599Z,0
2016-06-10T12:33:26.587Z,0
2016-06-10T12:34:26.575Z,0
2016-06-10T12:35:26.437Z,0
2016-06-10T12:36:26.597Z,0
2016-06-10T12:37:26.584Z,0
2016-06-10T12:38:26.571Z,0
2016-06-10T12:39:26.575Z,0
2016-06-10T12:40:26.577Z,0
2016-06-10T12:41:26.596Z,0
2016-06-10T12:42:27.271Z,0
2016-06-10T12:43:26.931Z,0
2016-06-10T12:44:26.434Z,0
2016-06-10T12:45:26.453Z,0
2016-06-10T12:46:26.596Z,0
2016-06-10T12:47:26.599Z,0
2016-06-10T12:48:26.618Z,0
2016-06-10T12:49:26.590Z,0
2016-06-10T12:50:26.593Z,0
2016-06-10T12:51:26.612Z,0
2016-06-10T12:52:26.614Z,0
2016-06-10T12:53:26.618Z,0
2016-06-10T12:54:26.605Z,0
2016-06-10T12:55:26.623Z,0
2016-06-10T12:56:26.611Z,0
2016-06-10T12:57:26.630Z,0
2016-06-10T12:58:27.133Z,0
2016-06-10T12:59:26.621Z,0
2016-06-10T13:00:26.639Z,0
2016-06-10T13:01:26.641Z,0
2016-06-10T13:02:26.474Z,0
2016-06-10T13:03:26.633Z,0
2016-06-10T13:04:26.651Z,0
2016-06-10T13:05:26.483Z,0
2016-06-10T13:06:26.657Z,0
2016-06-10T13:07:26.490Z,0
2016-06-10T13:08:26.632Z,0
2016-06-10T13:09:26.652Z,0
2016-06-10T13:10:26.638Z,0
2016-06-10T13:11:26.485Z,0
2016-06-10T13:12:26.661Z,0
2016-06-10T13:13:27.038Z,0
2016-06-10T13:14:26.651Z,0
2016-06-10T13:15:26.654Z,0
2016-06-10T13:16:26.642Z,0
2016-06-10T13:17:26.660Z,0
2016-06-10T13:18:26.507Z,0
2016-06-10T13:19:26.510Z,0
2016-06-10T13:20:26.513Z,0
2016-06-10T13:21:26.688Z,0
2016-06-10T13:22:26.661Z,0
2016-06-10T13:23:26.664Z,0
2016-06-10T13:24:26.698Z,0
2016-06-10T13:25:26.685Z,0
2016-06-10T13:26:26.688Z,0
2016-06-10T13:27:26.691Z,0
2016-06-10T13:28:26.819Z,0
2016-06-10T13:29:26.682Z,0
2016-06-10T13:30:26.544Z,0
2016-06-10T13:31:26.688Z,0
2016-06-10T13:32:26.691Z,0
2016-06-10T13:33:26.695Z,0
2016-06-10T13:34:26.682Z,0
2016-06-10T13:35:26.701Z,0
2016-06-10T13:36:26.687Z,0
2016-06-10T13:37:26.691Z,0
2016-06-10T13:38:26.694Z,0
2016-06-10T13:39:26.697Z,0
2016-06-10T13:40:46.734Z,0
2016-06-10T13:41:26.719Z,0
2016-06-10T13:42:26.722Z,0
2016-06-10T13:43:27.287Z,0
2016-06-10T13:44:46.684Z,0
2016-06-10T13:45:26.715Z,0
2016-06-10T13:46:26.734Z,0
2016-06-10T13:47:26.722Z,0
2016-06-10T13:48:26.740Z,0
2016-06-10T13:49:26.743Z,0
2016-06-10T13:50:26.730Z,0
2016-06-10T13:51:26.733Z,0
2016-06-10T13:52:26.736Z,0
2016-06-10T13:53:26.740Z,0
2016-06-10T13:54:26.743Z,0
2016-06-10T13:55:26.746Z,0
2016-06-10T13:56:26.733Z,0
2016-06-10T13:57:26.752Z,0
2016-06-10T13:58:28.630Z,0
2016-06-10T13:59:26.602Z,0
2016-06-10T14:00:26.605Z,0
2016-06-10T14:01:26.749Z,0
2016-06-10T14:02:26.768Z,0
2016-06-10T14:03:26.771Z,0
2016-06-10T14:04:26.774Z,0
2016-06-10T14:05:26.777Z,0
2016-06-10T14:06:26.749Z,0
2016-06-10T14:07:26.767Z,0
2016-06-10T14:08:26.770Z,0
2016-06-10T14:09:26.789Z,0
2016-06-10T14:10:26.776Z,0
2016-06-10T14:11:26.779Z,0
2016-06-10T14:12:26.782Z,0
2016-06-10T14:13:26.582Z,0
2016-06-10T14:14:27.038Z,0
2016-06-10T14:15:26.776Z,0
2016-06-10T14:16:26.794Z,0
2016-06-10T14:17:26.797Z,0
2016-06-10T14:18:26.800Z,0
2016-06-10T14:19:26.788Z,0
2016-06-10T14:20:26.792Z,0
2016-06-10T14:21:26.810Z,0
2016-06-10T14:22:26.673Z,0
2016-06-10T14:23:26.801Z,0
2016-06-10T14:24:26.819Z,0
2016-06-10T14:25:26.807Z,0
2016-06-10T14:26:26.810Z,0
2016-06-10T14:27:26.813Z,0
2016-06-10T14:28:26.816Z,0
2016-06-10T14:29:27.928Z,0
2016-06-10T14:30:26.837Z,0
2016-06-10T14:31:26.826Z,0
2016-06-10T14:32:26.829Z,0
2016-06-10T14:33:26.816Z,0